createdAt,value
2022-08-17T00:02:01.944Z,5.70
2022-08-17T00:04:12.580Z,5.50
2022-08-17T00:06:18.463Z,5.68
2022-08-17T00:08:24.316Z,5.28
2022-08-17T00:10:26.477Z,5.38
2022-08-17T00:12:43.317Z,5.90
2022-08-17T00:14:45.931Z,5.70
2022-08-17T00:16:57.045Z,5.95
2022-08-17T00:19:08.370Z,5.55
2022-08-17T00:21:11.721Z,6.10
2022-08-17T00:23:16.929Z,6.45
2022-08-17T00:25:20.031Z,6.03
2022-08-17T00:27:21.640Z,6.50
2022-08-17T00:29:23.299Z,6.60
2022-08-17T00:31:25.245Z,6.35
2022-08-17T00:33:30.066Z,6.28
2022-08-17T00:35:31.960Z,6.72
2022-08-17T00:37:33.621Z,6.13
2022-08-17T00:39:35.242Z,6.50
2022-08-17T00:41:37.701Z,6.47
2022-08-17T00:43:54.171Z,7.18
2022-08-17T00:45:55.999Z,7.20
2022-08-17T00:47:57.638Z,6.93
2022-08-17T00:49:59.365Z,6.53
2022-08-17T00:52:11.702Z,6.80
2022-08-17T00:54:15.895Z,7.15
2022-08-17T00:56:22.832Z,7.40
2022-08-17T00:58:35.837Z,7.32
2022-08-17T01:00:44.276Z,6.50
2022-08-17T01:02:48.113Z,7.07
2022-08-17T01:04:52.788Z,7.17
2022-08-17T01:06:55.145Z,7.20
2022-08-17T01:08:59.528Z,7.53
2022-08-17T01:11:02.319Z,7.10
2022-08-17T01:13:04.580Z,7.40
2022-08-17T01:15:06.658Z,7.10
2022-08-17T01:17:09.204Z,6.45
2022-08-17T01:19:17.238Z,6.50
2022-08-17T01:21:55.742Z,7.30
2022-08-17T01:23:57.617Z,7.20
2022-08-17T01:26:01.918Z,6.60
2022-08-17T01:28:04.117Z,7.40
2022-08-17T01:30:58.878Z,7.80
2022-08-17T01:32:31.514Z,7.40
2022-08-17T01:34:42.395Z,7.07
2022-08-17T01:36:47.912Z,6.93
2022-08-17T01:38:49.564Z,7.20
2022-08-17T01:40:57.513Z,6.80
2022-08-17T01:43:07.360Z,7.37
2022-08-17T01:45:14.072Z,7.10
2022-08-17T01:47:15.709Z,7.60
2022-08-17T01:49:17.379Z,7.47
2022-08-17T01:51:19.972Z,6.90
2022-08-17T01:53:36.811Z,7.00
2022-08-17T01:55:47.602Z,6.73
2022-08-17T01:57:49.185Z,6.87
2022-08-17T01:59:50.826Z,6.67
2022-08-17T02:01:53.073Z,6.90
2022-08-17T02:04:00.431Z,6.73
2022-08-17T02:06:05.365Z,8.07
2022-08-17T02:08:19.789Z,6.87
2022-08-17T02:10:21.944Z,6.90
2022-08-17T02:12:39.430Z,7.13
2022-08-17T02:14:41.504Z,7.07
2022-08-17T02:16:43.209Z,6.57
2022-08-17T02:18:46.479Z,6.47
2022-08-17T02:20:48.120Z,6.60
2022-08-17T02:22:50.195Z,6.37
2022-08-17T02:24:58.279Z,6.70
2022-08-17T02:27:03.815Z,7.05
2022-08-17T02:29:05.488Z,6.30
2022-08-17T02:31:10.426Z,6.43
2022-08-17T02:33:12.237Z,6.30
2022-08-17T02:35:14.535Z,6.50
2022-08-17T02:37:21.005Z,6.38
2022-08-17T02:39:22.631Z,6.13
2022-08-17T02:41:24.275Z,5.45
2022-08-17T02:43:27.571Z,5.95
2022-08-17T02:45:29.166Z,6.22
2022-08-17T02:47:31.292Z,6.65
2022-08-17T02:49:32.958Z,6.57
2022-08-17T02:51:35.317Z,6.32
2022-08-17T02:53:36.939Z,6.60
2022-08-17T02:55:41.060Z,6.65
2022-08-17T02:57:43.068Z,6.50
2022-08-17T02:59:48.961Z,6.78
2022-08-17T03:01:51.025Z,6.30
2022-08-17T03:03:52.848Z,6.38
2022-08-17T03:05:54.481Z,6.53
2022-08-17T03:07:57.027Z,6.72
2022-08-17T03:09:59.356Z,6.05
2022-08-17T03:12:06.779Z,6.72
2022-08-17T03:14:08.576Z,6.40
2022-08-17T03:16:10.245Z,6.05
2022-08-17T03:18:19.367Z,6.40
2022-08-17T03:20:30.733Z,5.85
2022-08-17T03:22:40.780Z,6.05
2022-08-17T03:24:42.372Z,7.03
2022-08-17T03:26:44.036Z,6.15
2022-08-17T03:28:45.675Z,5.88
2022-08-17T03:30:47.340Z,6.15
2022-08-17T03:32:51.569Z,5.63
2022-08-17T03:34:59.219Z,5.95
2022-08-17T03:37:00.802Z,6.43
2022-08-17T03:39:02.449Z,6.60
2022-08-17T03:41:06.147Z,6.40
2022-08-17T03:43:09.204Z,6.07
2022-08-17T03:45:15.600Z,6.30
2022-08-17T03:47:35.874Z,5.90
2022-08-17T03:50:03.283Z,5.78
2022-08-17T03:52:23.334Z,6.28
2022-08-17T03:54:43.698Z,6.15
2022-08-17T03:56:50.075Z,5.38
2022-08-17T03:58:51.689Z,6.40
2022-08-17T04:00:54.788Z,6.25
2022-08-17T04:02:57.351Z,6.15
2022-08-17T04:04:59.737Z,6.10
2022-08-17T04:07:01.433Z,5.95
2022-08-17T04:09:03.146Z,5.70
2022-08-17T04:11:04.865Z,5.60
2022-08-17T04:13:06.537Z,6.15
2022-08-17T04:15:08.884Z,5.90
2022-08-17T04:17:10.537Z,6.30
2022-08-17T04:19:12.272Z,5.68
2022-08-17T04:21:13.868Z,6.80
2022-08-17T04:23:18.332Z,7.05
2022-08-17T04:25:20.241Z,6.72
2022-08-17T04:27:21.814Z,6.88
2022-08-17T04:29:23.665Z,7.13
2022-08-17T04:31:26.488Z,7.40
2022-08-17T04:33:29.907Z,7.38
2022-08-17T04:35:34.626Z,7.47
2022-08-17T04:37:36.206Z,7.28
2022-08-17T04:39:37.808Z,7.90
2022-08-17T04:41:57.724Z,7.88
2022-08-17T04:43:59.671Z,8.02
2022-08-17T04:46:05.327Z,7.38
2022-08-17T04:48:07.113Z,7.95
2022-08-17T04:50:09.196Z,8.07
2022-08-17T04:52:11.260Z,7.78
2022-08-17T04:54:32.885Z,7.95
2022-08-17T04:56:35.283Z,7.78
2022-08-17T04:58:37.010Z,8.35
2022-08-17T05:00:39.231Z,8.20
2022-08-17T05:02:50.501Z,7.95
2022-08-17T05:04:52.472Z,7.63
2022-08-17T05:06:56.986Z,7.45
2022-08-17T05:08:59.884Z,7.10
2022-08-17T05:11:01.596Z,7.80
2022-08-17T05:13:08.341Z,7.57
2022-08-17T05:15:16.179Z,7.88
2022-08-17T05:17:17.752Z,8.43
2022-08-17T05:19:19.381Z,8.07
2022-08-17T05:21:22.960Z,7.88
2022-08-17T05:23:26.397Z,8.32
2022-08-17T05:25:34.474Z,7.95
2022-08-17T05:27:38.957Z,7.72
2022-08-17T05:29:42.947Z,7.43
2022-08-17T05:31:44.594Z,7.57
2022-08-17T05:33:46.458Z,7.53
2022-08-17T05:35:50.828Z,7.95
2022-08-17T05:37:53.515Z,7.38
2022-08-17T05:39:58.322Z,7.55
2022-08-17T05:42:02.643Z,7.50
2022-08-17T05:44:05.321Z,8.23
2022-08-17T05:46:25.291Z,7.30
2022-08-17T05:48:39.776Z,8.20
2022-08-17T05:51:03.658Z,7.40
2022-08-17T05:53:48.452Z,7.15
2022-08-17T05:56:30.207Z,7.80
2022-08-17T05:58:47.363Z,7.50
2022-08-17T06:01:00.612Z,7.78
2022-08-17T06:03:14.496Z,7.68
2022-08-17T06:05:54.207Z,8.15
2022-08-17T06:08:09.976Z,7.68
2022-08-17T06:10:23.047Z,7.32
2022-08-17T06:12:30.543Z,7.40
2022-08-17T06:14:36.478Z,7.75
2022-08-17T06:16:44.985Z,7.40
2022-08-17T06:19:30.757Z,6.97
2022-08-17T06:21:39.493Z,6.75
2022-08-17T06:23:49.005Z,7.07
2022-08-17T06:25:55.511Z,7.78
2022-08-17T06:28:14.708Z,6.90
2022-08-17T06:30:26.810Z,7.57
2022-08-17T06:32:29.266Z,7.45
2022-08-17T06:34:32.283Z,7.25
2022-08-17T06:37:03.849Z,8.35
2022-08-17T06:39:27.941Z,7.38
2022-08-17T06:41:38.454Z,7.57
2022-08-17T06:44:07.867Z,7.60
2022-08-17T06:46:41.443Z,7.00
2022-08-17T06:48:52.435Z,7.72
2022-08-17T06:51:17.099Z,8.20
2022-08-17T06:53:31.707Z,7.72
2022-08-17T06:55:46.559Z,8.18
2022-08-17T06:57:53.618Z,7.43
2022-08-17T07:00:07.992Z,8.00
2022-08-17T07:02:18.948Z,7.57
2022-08-17T07:04:34.354Z,7.18
2022-08-17T07:07:01.799Z,7.05
2022-08-17T07:09:14.062Z,7.20
2022-08-17T07:11:42.055Z,7.53
2022-08-17T07:13:58.005Z,6.95
2022-08-17T07:16:52.237Z,7.82
2022-08-17T07:18:56.244Z,7.60
2022-08-17T07:21:07.452Z,7.10
2022-08-17T07:23:44.336Z,7.35
2022-08-17T07:25:45.935Z,6.93
2022-08-17T07:27:51.642Z,6.88
2022-08-17T07:30:00.693Z,6.85
2022-08-17T07:32:02.912Z,6.75
2022-08-17T07:34:14.589Z,6.25
2022-08-17T07:36:34.548Z,7.35
2022-08-17T07:38:55.782Z,7.55
2022-08-17T07:41:06.280Z,7.68
2022-08-17T07:43:18.781Z,7.07
2022-08-17T07:45:44.012Z,7.20
2022-08-17T07:48:10.125Z,7.85
2022-08-17T07:50:29.355Z,7.40
2022-08-17T07:52:51.714Z,7.75
2022-08-17T07:54:54.615Z,8.10
2022-08-17T07:57:00.377Z,8.35
2022-08-17T07:59:23.110Z,6.85
2022-08-17T08:01:25.615Z,6.43
2022-08-17T08:03:46.192Z,6.40
2022-08-17T08:06:01.974Z,7.05
2022-08-17T08:08:18.509Z,6.45
2022-08-17T08:10:31.505Z,6.03
2022-08-17T08:12:42.868Z,6.75
2022-08-17T08:14:55.409Z,6.75
2022-08-17T08:17:00.466Z,6.53
2022-08-17T08:19:02.895Z,6.68
2022-08-17T08:21:12.668Z,6.97
2022-08-17T08:23:34.075Z,6.32
2022-08-17T08:25:53.241Z,6.70
2022-08-17T08:28:24.846Z,6.25
2022-08-17T08:30:28.283Z,6.70
2022-08-17T08:32:50.323Z,6.38
2022-08-17T08:35:31.066Z,6.72
2022-08-17T08:37:47.069Z,6.88
2022-08-17T08:40:02.664Z,7.10
2022-08-17T08:42:11.049Z,8.35
2022-08-17T08:45:00.973Z,7.45
2022-08-17T08:47:15.125Z,9.52
2022-08-17T08:50:02.645Z,11.00
2022-08-17T08:52:04.670Z,10.48
2022-08-17T08:54:44.376Z,11.45
2022-08-17T08:59:42.058Z,13.07
2022-08-17T09:02:01.085Z,17.05
2022-08-17T09:04:24.834Z,14.35
2022-08-17T09:07:07.736Z,13.25
2022-08-17T09:09:19.989Z,13.93
2022-08-17T09:12:01.823Z,13.25
2022-08-17T09:14:26.759Z,14.40
2022-08-17T09:16:48.531Z,13.55
2022-08-17T09:19:01.132Z,14.38
2022-08-17T09:21:21.580Z,13.38
2022-08-17T09:23:33.584Z,12.90
2022-08-17T09:26:07.817Z,12.65
2022-08-17T09:28:24.206Z,11.57
2022-08-17T09:30:29.966Z,11.77
2022-08-17T09:32:39.120Z,10.68
2022-08-17T09:34:48.524Z,10.88
2022-08-17T09:37:11.729Z,9.77
2022-08-17T09:39:24.437Z,9.88
2022-08-17T09:41:48.939Z,8.80
2022-08-17T09:43:58.660Z,8.43
2022-08-17T09:46:11.603Z,8.13
2022-08-17T09:48:19.254Z,8.90
2022-08-17T09:51:13.635Z,8.27
2022-08-17T09:53:15.589Z,8.15
2022-08-17T09:55:17.304Z,8.20
2022-08-17T09:57:37.389Z,9.38
2022-08-17T09:59:38.917Z,9.10
2022-08-17T10:02:01.203Z,8.52
2022-08-17T10:04:08.649Z,8.65
2022-08-17T10:06:21.747Z,8.85
2022-08-17T10:08:55.688Z,8.70
2022-08-17T10:11:11.630Z,9.25
2022-08-17T10:13:31.427Z,8.52
2022-08-17T10:15:46.877Z,9.23
2022-08-17T10:17:57.434Z,9.23
2022-08-17T10:20:06.976Z,9.73
2022-08-17T10:22:53.211Z,8.60
2022-08-17T10:25:49.066Z,8.60
2022-08-17T10:27:59.858Z,8.13
2022-08-17T10:30:05.083Z,8.35
2022-08-17T10:32:10.800Z,8.20
2022-08-17T10:34:46.205Z,8.50
2022-08-17T10:37:00.655Z,8.10
2022-08-17T10:39:34.323Z,8.70
2022-08-17T10:41:57.647Z,8.88
2022-08-17T10:44:37.094Z,8.30
2022-08-17T10:47:07.652Z,8.65
2022-08-17T10:49:18.337Z,8.40
2022-08-17T10:51:38.478Z,8.32
2022-08-17T10:53:49.640Z,7.90
2022-08-17T10:56:13.240Z,9.07
2022-08-17T10:58:22.119Z,8.90
2022-08-17T11:03:26.470Z,7.15
2022-08-17T11:06:06.554Z,7.85
2022-08-17T11:08:23.387Z,6.85
2022-08-17T11:10:52.762Z,7.22
2022-08-17T11:13:01.325Z,8.45
2022-08-17T11:15:32.100Z,6.03
2022-08-17T11:17:58.225Z,6.75
2022-08-17T11:20:30.379Z,6.32
2022-08-17T11:22:57.873Z,6.68
2022-08-17T11:25:17.348Z,5.90
2022-08-17T11:27:33.796Z,6.60
2022-08-17T11:29:51.985Z,5.60
2022-08-17T11:32:15.096Z,5.68
2022-08-17T11:34:23.138Z,5.88
2022-08-17T11:36:39.275Z,5.30
2022-08-17T11:38:58.787Z,5.03
2022-08-17T11:41:29.357Z,5.28
2022-08-17T11:44:03.972Z,5.18
2022-08-17T11:46:18.814Z,5.22
2022-08-17T11:49:13.872Z,5.00
2022-08-17T11:51:33.857Z,4.45
2022-08-17T11:53:38.347Z,5.25
2022-08-17T11:55:44.754Z,5.55
2022-08-17T11:58:03.638Z,5.50
2022-08-17T12:00:28.986Z,4.82
2022-08-17T12:02:38.869Z,5.20
2022-08-17T12:05:22.953Z,5.00
2022-08-17T12:07:25.054Z,5.13
2022-08-17T12:09:33.378Z,5.60
2022-08-17T12:11:55.507Z,5.40
2022-08-17T12:14:07.197Z,5.22
2022-08-17T12:16:13.505Z,4.78
2022-08-17T12:18:29.518Z,5.25
2022-08-17T12:20:40.736Z,5.57
2022-08-17T12:22:57.724Z,5.32
2022-08-17T12:25:01.926Z,5.43
2022-08-17T12:27:07.162Z,5.43
2022-08-17T12:29:38.916Z,5.90
2022-08-17T12:31:44.587Z,5.50
2022-08-17T12:33:48.290Z,6.15
2022-08-17T12:35:59.404Z,7.18
2022-08-17T12:38:03.099Z,7.07
2022-08-17T12:40:22.605Z,7.03
2022-08-17T12:42:37.503Z,7.30
2022-08-17T12:44:50.522Z,6.93
2022-08-17T12:46:54.882Z,5.80
2022-08-17T12:49:11.934Z,6.22
2022-08-17T12:51:13.629Z,5.95
2022-08-17T12:53:27.287Z,5.65
2022-08-17T12:55:33.803Z,5.30
2022-08-17T12:57:38.663Z,4.70
2022-08-17T12:59:44.086Z,5.47
2022-08-17T13:01:47.129Z,4.43
2022-08-17T13:03:52.444Z,4.43
2022-08-17T13:06:09.557Z,4.40
2022-08-17T13:08:27.909Z,4.22
2022-08-17T13:10:34.557Z,4.30
2022-08-17T13:12:36.271Z,4.18
2022-08-17T13:14:37.929Z,4.18
2022-08-17T13:16:39.833Z,4.15
2022-08-17T13:19:02.991Z,4.10
2022-08-17T13:21:06.349Z,4.35
2022-08-17T13:23:19.641Z,4.20
2022-08-17T13:25:21.562Z,3.65
2022-08-17T13:27:26.346Z,3.70
2022-08-17T13:29:53.109Z,4.43
2022-08-17T13:32:05.156Z,4.20
2022-08-17T13:34:26.720Z,4.10
2022-08-17T13:36:33.592Z,4.13
2022-08-17T13:38:51.012Z,4.07
2022-08-17T13:40:53.489Z,4.07
2022-08-17T13:42:56.439Z,3.80
2022-08-17T13:44:59.612Z,4.10
2022-08-17T13:47:02.534Z,4.13
2022-08-17T13:49:09.926Z,3.90
2022-08-17T13:51:16.928Z,4.40
2022-08-17T13:53:23.060Z,4.05
2022-08-17T13:55:26.700Z,4.43
2022-08-17T13:57:28.697Z,4.90
2022-08-17T13:59:54.830Z,3.53
2022-08-17T14:01:57.387Z,4.10
2022-08-17T14:04:01.614Z,3.75
2022-08-17T14:06:05.613Z,4.00
2022-08-17T14:08:07.360Z,4.30
2022-08-17T14:10:17.952Z,3.90
2022-08-17T14:12:25.040Z,3.90
2022-08-17T14:14:26.907Z,4.32
2022-08-17T14:16:28.525Z,4.30
2022-08-17T14:18:55.224Z,3.90
2022-08-17T14:20:53.329Z,4.13
2022-08-17T14:22:55.912Z,4.20
2022-08-17T14:24:59.388Z,3.85
2022-08-17T14:27:02.181Z,4.53
2022-08-17T14:29:04.310Z,5.05
2022-08-17T14:31:16.760Z,4.82
2022-08-17T14:33:22.555Z,4.40
2022-08-17T14:35:24.744Z,4.07
2022-08-17T14:37:28.372Z,4.22
2022-08-17T14:39:30.030Z,4.53
2022-08-17T14:41:31.823Z,4.18
2022-08-17T14:43:35.353Z,3.90
2022-08-17T14:45:36.961Z,4.30
2022-08-17T14:47:40.395Z,4.32
2022-08-17T14:49:42.365Z,4.20
2022-08-17T14:51:44.693Z,4.15
2022-08-17T14:53:47.033Z,3.60
2022-08-17T14:55:51.241Z,4.07
2022-08-17T14:57:53.158Z,4.03
2022-08-17T14:59:55.621Z,3.92
2022-08-17T15:01:58.199Z,4.28
2022-08-17T15:04:00.959Z,4.10
2022-08-17T15:06:02.886Z,4.05
2022-08-17T15:08:05.674Z,4.53
2022-08-17T15:10:08.981Z,4.13
2022-08-17T15:12:16.983Z,4.13
2022-08-17T15:14:18.611Z,3.72
2022-08-17T15:16:20.565Z,3.83
2022-08-17T15:18:22.377Z,4.28
2022-08-17T15:20:28.013Z,4.35
2022-08-17T15:22:29.811Z,3.65
2022-08-17T15:24:31.413Z,3.85
2022-08-17T15:26:33.060Z,3.45
2022-08-17T15:28:34.692Z,4.18
2022-08-17T15:30:36.342Z,4.05
2022-08-17T15:32:41.318Z,4.53
2022-08-17T15:35:00.457Z,3.53
2022-08-17T15:37:02.568Z,3.60
2022-08-17T15:39:04.439Z,3.50
2022-08-17T15:41:09.858Z,3.90
2022-08-17T15:43:20.061Z,3.55
2022-08-17T15:45:26.647Z,3.40
2022-08-17T15:47:28.257Z,3.53
2022-08-17T15:49:29.829Z,3.53
2022-08-17T15:51:34.350Z,3.40
2022-08-17T15:53:36.956Z,3.75
2022-08-17T15:55:39.687Z,3.40
2022-08-17T15:57:41.366Z,3.53
2022-08-17T15:59:44.772Z,3.90
2022-08-17T16:03:16.133Z,3.33
2022-08-17T16:04:26.510Z,3.47
2022-08-17T16:06:31.939Z,3.70
2022-08-17T16:08:35.282Z,3.63
2022-08-17T16:10:37.178Z,3.92
2022-08-17T16:12:38.997Z,3.40
2022-08-17T16:14:40.643Z,4.05
2022-08-17T16:16:42.295Z,3.58
2022-08-17T16:18:43.913Z,3.72
2022-08-17T16:20:45.579Z,3.85
2022-08-17T16:22:47.450Z,3.67
2022-08-17T16:24:57.167Z,3.42
2022-08-17T16:26:59.729Z,3.67
2022-08-17T16:29:04.670Z,3.60
2022-08-17T16:31:08.139Z,3.50
2022-08-17T16:33:12.563Z,3.60
2022-08-17T16:35:18.482Z,3.40
2022-08-17T16:37:20.302Z,3.67
2022-08-17T16:39:22.246Z,3.30
2022-08-17T16:41:42.460Z,3.72
2022-08-17T16:43:45.656Z,3.97
2022-08-17T16:45:51.811Z,3.80
2022-08-17T16:47:54.644Z,3.63
2022-08-17T16:49:56.372Z,3.78
2022-08-17T16:52:03.095Z,3.72
2022-08-17T16:54:06.129Z,4.07
2022-08-17T16:56:07.699Z,3.50
2022-08-17T16:58:09.542Z,3.45
2022-08-17T17:00:13.482Z,3.35
2022-08-17T17:02:16.982Z,3.75
2022-08-17T17:04:19.388Z,3.53
2022-08-17T17:06:30.351Z,3.55
2022-08-17T17:08:44.639Z,4.07
2022-08-17T17:10:49.680Z,3.58
2022-08-17T17:13:02.971Z,3.78
2022-08-17T17:15:06.768Z,3.58
2022-08-17T17:17:36.298Z,3.80
2022-08-17T17:19:51.464Z,3.60
2022-08-17T17:21:59.109Z,4.00
2022-08-17T17:24:06.737Z,4.00
2022-08-17T17:26:43.329Z,3.80
2022-08-17T17:28:54.024Z,3.97
2022-08-17T17:31:12.025Z,4.00
2022-08-17T17:33:36.213Z,3.88
2022-08-17T17:35:50.919Z,3.80
2022-08-17T17:37:57.315Z,4.05
2022-08-17T17:40:05.223Z,4.10
2022-08-17T17:42:11.361Z,4.63
2022-08-17T17:44:18.037Z,4.45
2022-08-17T17:46:33.317Z,4.68
2022-08-17T17:48:35.030Z,4.28
2022-08-17T17:50:44.682Z,4.53
2022-08-17T17:53:12.240Z,4.68
2022-08-17T17:55:54.441Z,4.80
2022-08-17T17:58:01.968Z,4.88
2022-08-17T18:00:15.433Z,4.72
2022-08-17T18:02:51.434Z,4.65
2022-08-17T18:05:03.480Z,4.97
2022-08-17T18:07:38.099Z,5.05
2022-08-17T18:09:49.419Z,4.75
2022-08-17T18:12:01.390Z,5.03
2022-08-17T18:14:42.199Z,4.65
2022-08-17T18:16:48.140Z,4.93
2022-08-17T18:18:52.328Z,4.32
2022-08-17T18:21:05.169Z,4.75
2022-08-17T18:23:07.085Z,4.30
2022-08-17T18:25:58.745Z,4.88
2022-08-17T18:28:00.368Z,4.13
2022-08-17T18:30:25.767Z,4.30
2022-08-17T18:32:34.441Z,3.95
2022-08-17T18:34:47.271Z,4.03
2022-08-17T18:36:49.148Z,4.07
2022-08-17T18:38:50.729Z,4.90
2022-08-17T18:41:18.528Z,4.38
2022-08-17T18:43:58.749Z,4.45
2022-08-17T18:46:17.194Z,4.50
2022-08-17T18:48:36.577Z,4.90
2022-08-17T18:50:41.459Z,4.72
2022-08-17T18:52:44.057Z,4.35
2022-08-17T18:55:11.899Z,4.80
2022-08-17T18:57:13.817Z,5.07
2022-08-17T18:59:44.844Z,5.75
2022-08-17T19:02:22.387Z,4.65
2022-08-17T19:04:43.089Z,5.28
2022-08-17T19:06:44.712Z,4.40
2022-08-17T19:08:46.307Z,4.97
2022-08-17T19:10:53.084Z,4.60
2022-08-17T19:13:12.837Z,4.45
2022-08-17T19:15:22.598Z,4.50
2022-08-17T19:17:30.713Z,4.38
2022-08-17T19:20:02.370Z,4.65
2022-08-17T19:22:16.988Z,4.35
2022-08-17T19:24:36.631Z,4.38
2022-08-17T19:27:14.082Z,4.32
2022-08-17T19:29:41.160Z,4.25
2022-08-17T19:31:44.142Z,4.70
2022-08-17T19:33:47.997Z,5.22
2022-08-17T19:35:57.517Z,5.90
2022-08-17T19:38:34.106Z,5.30
2022-08-17T19:40:59.345Z,4.90
2022-08-17T19:43:04.073Z,5.30
2022-08-17T19:45:15.934Z,6.15
2022-08-17T19:48:03.112Z,5.00
2022-08-17T19:50:12.819Z,4.97
2022-08-17T19:52:17.536Z,4.97
2022-08-17T19:54:36.675Z,5.30
2022-08-17T19:56:55.497Z,5.43
2022-08-17T19:59:09.325Z,4.95
2022-08-17T20:01:18.091Z,4.88
2022-08-17T20:03:38.108Z,5.43
2022-08-17T20:06:11.410Z,5.53
2022-08-17T20:08:20.440Z,5.45
2022-08-17T20:10:28.171Z,4.70
2022-08-17T20:12:35.491Z,4.95
2022-08-17T20:15:00.330Z,4.90
2022-08-17T20:17:03.462Z,5.43
2022-08-17T20:19:09.689Z,5.32
2022-08-17T20:21:26.813Z,5.20
2022-08-17T20:24:15.853Z,5.10
2022-08-17T20:26:58.892Z,5.10
2022-08-17T20:29:05.477Z,5.38
2022-08-17T20:31:45.530Z,5.18
2022-08-17T20:33:47.235Z,4.78
2022-08-17T20:36:11.508Z,5.07
2022-08-17T20:38:36.305Z,5.15
2022-08-17T20:41:00.688Z,4.65
2022-08-17T20:43:33.281Z,4.93
2022-08-17T20:45:40.742Z,4.40
2022-08-17T20:48:07.461Z,5.05
2022-08-17T20:50:25.397Z,4.65
2022-08-17T20:52:35.929Z,5.10
2022-08-17T20:54:55.909Z,5.30
2022-08-17T20:57:00.977Z,5.30
2022-08-17T20:59:02.621Z,5.30
2022-08-17T21:01:24.270Z,5.45
2022-08-17T21:03:49.153Z,5.03
2022-08-17T21:05:58.842Z,5.47
2022-08-17T21:08:16.553Z,5.28
2022-08-17T21:10:24.114Z,5.50
2022-08-17T21:13:04.517Z,5.20
2022-08-17T21:15:28.497Z,5.25
2022-08-17T21:17:38.111Z,6.00
2022-08-17T21:20:10.981Z,5.30
2022-08-17T21:22:37.476Z,6.10
2022-08-17T21:24:50.777Z,5.65
2022-08-17T21:27:20.536Z,5.68
2022-08-17T21:29:30.970Z,5.85
2022-08-17T21:31:46.016Z,5.45
2022-08-17T21:34:22.990Z,5.65
2022-08-17T21:36:25.981Z,5.55
2022-08-17T21:38:37.132Z,5.68
2022-08-17T21:40:45.243Z,5.05
2022-08-17T21:42:55.160Z,5.55
2022-08-17T21:45:01.392Z,5.50
2022-08-17T21:47:24.737Z,5.68
2022-08-17T21:49:28.659Z,5.30
2022-08-17T21:51:32.517Z,5.05
2022-08-17T21:53:48.195Z,4.90
2022-08-17T21:55:52.294Z,5.45
2022-08-17T21:58:13.819Z,5.10
2022-08-17T22:00:25.797Z,5.32
2022-08-17T22:02:34.004Z,4.97
2022-08-17T22:04:38.886Z,4.63
2022-08-17T22:06:56.889Z,4.85
2022-08-17T22:09:30.104Z,5.00
2022-08-17T22:11:51.329Z,4.65
2022-08-17T22:14:05.300Z,4.85
2022-08-17T22:16:28.455Z,4.43
2022-08-17T22:18:31.193Z,5.20
2022-08-17T22:20:33.418Z,4.60
2022-08-17T22:23:04.077Z,4.28
2022-08-17T22:25:19.643Z,4.00
2022-08-17T22:27:21.724Z,4.28
2022-08-17T22:29:56.866Z,4.00
2022-08-17T22:31:59.350Z,4.55
2022-08-17T22:34:04.122Z,4.07
2022-08-17T22:36:29.833Z,4.20
2022-08-17T22:38:32.753Z,3.97
2022-08-17T22:40:34.674Z,4.43
2022-08-17T22:42:48.382Z,4.40
2022-08-17T22:44:51.810Z,3.95
2022-08-17T22:46:59.019Z,4.40
2022-08-17T22:49:00.850Z,4.38
2022-08-17T22:51:13.393Z,4.30
2022-08-17T22:53:38.090Z,4.22
2022-08-17T22:56:08.856Z,4.30
2022-08-17T22:58:34.977Z,4.43
2022-08-17T23:00:42.122Z,4.38
2022-08-17T23:03:10.539Z,3.75
2022-08-17T23:05:16.823Z,4.10
2022-08-17T23:07:20.160Z,4.28
2022-08-17T23:09:22.105Z,4.45
2022-08-17T23:11:49.108Z,4.07
2022-08-17T23:13:54.971Z,4.00
2022-08-17T23:15:56.575Z,3.72
2022-08-17T23:17:59.466Z,4.03
2022-08-17T23:20:01.459Z,4.10
2022-08-17T23:22:08.027Z,4.13
2022-08-17T23:24:09.920Z,3.50
2022-08-17T23:26:11.736Z,3.95
2022-08-17T23:28:13.412Z,4.20
2022-08-17T23:30:15.119Z,3.75
2022-08-17T23:32:18.512Z,3.58
2022-08-17T23:34:20.265Z,3.95
2022-08-17T23:36:22.484Z,4.25
2022-08-17T23:38:26.984Z,4.13
2022-08-17T23:40:29.936Z,3.95
2022-08-17T23:42:32.215Z,4.45
2022-08-17T23:44:35.855Z,4.28
2022-08-17T23:46:37.430Z,4.25
2022-08-17T23:48:41.144Z,4.20
2022-08-17T23:50:42.773Z,4.07
2022-08-17T23:52:46.645Z,4.28
2022-08-17T23:54:49.920Z,4.38
2022-08-17T23:56:51.495Z,4.10
2022-08-17T23:58:55.554Z,4.50
